Time;durP1;ratioP1;P1;durP2;ratioP2;P2;SDS_P1;SDS_P2;PMS_P1;PMS_P2;Temp;Humidity;BMP_temperature;BMP_pressure;BME280_temperature;BME280_humidity;BME280_pressure;Samples;Min_cycle;Max_cycle;Signal;HPM_P1;HPM_P2
2021/03/20 00:01:59;;;;;;;7.28;1.80;;;;;;;-0.56;86.70;102024.88;5200811;28;20104;-77
2021/03/20 00:04:29;;;;;;;4.68;1.55;;;;;;;-0.52;86.37;102030.13;5200581;28;20601;-77
2021/03/20 00:06:59;;;;;;;5.97;1.50;;;;;;;-0.53;86.01;102022.41;5200060;28;20033;-77
2021/03/20 00:09:31;;;;;;;6.47;1.70;;;;;;;-0.70;86.48;102034.69;5182658;28;20116;-77
2021/03/20 00:14:44;;;;;;;5.07;1.48;;;;;;;-0.70;86.70;102039.81;5220779;28;20059;-79
2021/03/20 00:17:15;;;;;;;5.20;1.83;;;;;;;-0.70;86.79;102041.53;5204570;28;20028;-79
2021/03/20 00:19:45;;;;;;;7.05;1.73;;;;;;;-0.88;87.73;102046.06;5222179;28;20021;-79
2021/03/20 00:22:15;;;;;;;6.45;1.65;;;;;;;-0.76;87.98;102043.91;5221231;28;20070;-79
2021/03/20 00:24:46;;;;;;;5.20;1.33;;;;;;;-0.81;87.69;102038.63;5222241;28;20459;-79
2021/03/20 00:27:16;;;;;;;3.75;1.48;;;;;;;-0.83;87.99;102026.53;5223116;28;20017;-79
2021/03/20 00:29:46;;;;;;;6.90;1.80;;;;;;;-0.73;86.77;102032.03;5222971;28;20048;-79
2021/03/20 00:32:16;;;;;;;7.63;1.80;;;;;;;-0.58;86.15;102035.09;5223031;28;20021;-79
2021/03/20 00:34:47;;;;;;;5.68;1.90;;;;;;;-0.54;85.96;102030.94;5222625;28;20049;-79
2021/03/20 00:37:17;;;;;;;7.00;1.92;;;;;;;-0.69;85.01;102021.03;5222897;28;20466;-79
2021/03/20 00:39:47;;;;;;;7.68;1.60;;;;;;;-0.71;85.38;102022.69;5222529;28;20682;-79
2021/03/20 00:42:18;;;;;;;6.63;1.90;;;;;;;-0.66;85.86;102010.00;5200890;28;20025;-79
2021/03/20 00:44:48;;;;;;;8.95;1.85;;;;;;;-0.56;85.29;102012.03;5206877;28;20035;-78
2021/03/20 00:47:18;;;;;;;6.82;1.92;;;;;;;-0.50;84.95;101997.72;5226134;28;20033;-78
2021/03/20 00:49:49;;;;;;;7.65;1.50;;;;;;;-0.55;85.18;101983.00;5227378;28;20033;-79
2021/03/20 00:52:19;;;;;;;7.38;1.70;;;;;;;-0.46;84.46;101984.16;5225997;28;20017;-79
2021/03/20 00:54:49;;;;;;;6.20;1.88;;;;;;;-0.64;83.85;101992.94;5208922;28;20111;-79
2021/03/20 00:57:20;;;;;;;6.95;1.75;;;;;;;-0.70;85.11;101995.34;5227163;28;20104;-79
2021/03/20 00:59:50;;;;;;;6.47;1.70;;;;;;;-0.61;84.78;102003.31;5226872;28;20035;-79
2021/03/20 01:02:20;;;;;;;7.75;1.58;;;;;;;-0.44;84.88;101997.00;5209726;28;20024;-79
2021/03/20 01:04:51;;;;;;;7.53;1.77;;;;;;;-0.56;84.96;102009.47;5212498;28;20378;-79
2021/03/20 01:07:21;;;;;;;6.55;1.58;;;;;;;-0.40;84.98;101998.88;5226003;28;20040;-79
2021/03/20 01:09:51;;;;;;;5.07;1.52;;;;;;;-0.46;84.35;102004.69;5226179;28;20410;-79
2021/03/20 01:12:21;;;;;;;6.20;1.80;;;;;;;-0.57;84.29;102008.59;5225010;28;20803;-79
2021/03/20 01:14:52;;;;;;;7.47;2.00;;;;;;;-0.83;85.80;102023.97;5224440;28;20121;-79
2021/03/20 01:17:22;;;;;;;7.35;1.67;;;;;;;-0.67;86.00;102028.78;5228102;28;20029;-79
2021/03/20 01:19:52;;;;;;;5.07;1.52;;;;;;;-0.72;84.46;102030.34;5228963;28;20028;-78
2021/03/20 01:22:22;;;;;;;5.68;1.70;;;;;;;-0.83;84.64;102026.53;5228530;28;20021;-79
2021/03/20 01:24:53;;;;;;;6.70;1.75;;;;;;;-0.90;85.98;102043.41;5211535;28;20025;-79
2021/03/20 01:27:24;;;;;;;5.40;1.90;;;;;;;-1.02;86.25;102045.59;5225901;28;20024;-78
2021/03/20 01:29:54;;;;;;;9.02;2.20;;;;;;;-1.20;88.59;102046.63;5228249;28;20039;-79
2021/03/20 01:32:25;;;;;;;7.03;1.90;;;;;;;-1.07;87.87;102046.25;5226359;28;20059;-79
2021/03/20 01:34:55;;;;;;;5.47;1.75;;;;;;;-1.22;87.27;102045.72;5224893;28;20383;-79
2021/03/20 01:37:25;;;;;;;4.80;1.75;;;;;;;-1.16;87.84;102048.47;5225644;28;20033;-79
2021/03/20 01:39:56;;;;;;;7.95;2.00;;;;;;;-1.23;87.42;102036.28;5225701;28;20028;-79
2021/03/20 01:42:26;;;;;;;4.47;2.00;;;;;;;-1.26;87.92;102049.00;5225261;28;20024;-79
2021/03/20 01:45:10;;;;;;;6.68;1.75;;;;;;;-1.13;86.50;102044.34;5224624;28;20082;-79
2021/03/20 01:47:47;;;;;;;6.47;1.95;;;;;;;-0.95;86.13;102046.63;5222913;28;20632;-78
2021/03/20 01:50:46;;;;;;;8.45;2.10;;;;;;;-1.09;85.75;102040.19;5210624;28;20028;-79
2021/03/20 01:53:21;;;;;;;7.30;1.95;;;;;;;-1.17;87.03;102024.53;5187443;28;20395;-79
2021/03/20 01:55:52;;;;;;;4.65;1.73;;;;;;;-1.17;86.84;102026.22;5222935;28;20116;-79
2021/03/20 01:58:23;;;;;;;4.18;1.70;;;;;;;-1.30;87.36;102031.72;5227931;28;20507;-79
2021/03/20 02:01:06;;;;;;;6.63;2.00;;;;;;;-1.36;88.00;102039.22;5226780;28;20122;-79
2021/03/20 02:03:37;;;;;;;6.10;2.00;;;;;;;-1.37;88.82;102037.47;5221730;28;20033;-78
2021/03/20 02:06:09;;;;;;;6.18;2.10;;;;;;;-1.19;87.21;102040.69;5228155;28;20046;-79
2021/03/20 02:08:41;;;;;;;7.30;2.00;;;;;;;-1.25;87.31;102020.81;5225688;28;20051;-78
2021/03/20 02:11:24;;;;;;;6.18;2.17;;;;;;;-1.23;86.42;101995.25;5210771;28;20017;-79
2021/03/20 02:14:07;;;;;;;9.07;2.65;;;;;;;-1.27;87.21;102006.22;5225078;28;20071;-79
2021/03/20 02:16:55;;;;;;;4.38;1.60;;;;;;;-1.10;86.70;102011.09;5221550;28;20028;-79
2021/03/20 02:19:59;;;;;;;6.80;1.80;;;;;;;-1.07;87.53;102020.59;5225556;28;20107;-79
2021/03/20 02:23:06;;;;;;;6.35;1.98;;;;;;;-1.08;86.27;102000.91;5223522;28;20042;-78
2021/03/20 02:25:45;;;;;;;5.75;1.95;;;;;;;-1.23;87.12;102008.06;5222655;28;20043;-79
2021/03/20 02:28:31;;;;;;;5.78;1.80;;;;;;;-1.29;87.51;102007.84;5225084;28;20025;-79
2021/03/20 02:31:26;;;;;;;7.55;2.10;;;;;;;-1.28;88.48;102009.59;5221116;28;20024;-79
2021/03/20 02:34:14;;;;;;;5.55;2.17;;;;;;;-1.31;87.71;102014.59;5224867;28;20024;-80
2021/03/20 02:37:10;;;;;;;5.75;2.00;;;;;;;-1.13;87.95;102022.94;5204948;28;20021;-79
2021/03/20 02:39:57;;;;;;;7.85;1.90;;;;;;;-1.23;87.58;102018.31;5204342;28;20021;-79
2021/03/20 02:42:46;;;;;;;7.18;2.13;;;;;;;-1.31;88.46;102014.59;5206582;28;20103;-79
2021/03/20 02:45:28;;;;;;;5.05;2.00;;;;;;;-1.16;88.62;102013.47;5223760;28;20036;-80
2021/03/20 02:48:06;;;;;;;7.85;2.15;;;;;;;-1.26;87.85;102013.09;5222750;28;20028;-79
2021/03/20 02:51:02;;;;;;;3.85;1.90;;;;;;;-1.40;88.67;102024.56;5221757;28;20029;-79
2021/03/20 02:53:52;;;;;;;6.20;2.28;;;;;;;-1.32;88.66;102018.00;5203653;28;20068;-79
2021/03/20 02:56:29;;;;;;;7.28;2.20;;;;;;;-1.58;90.35;102024.75;5226098;28;20040;-79
2021/03/20 02:59:04;;;;;;;7.68;2.20;;;;;;;-1.50;90.61;102017.34;5206420;28;20579;-79
2021/03/20 03:01:36;;;;;;;;;;;;;;;-1.66;90.85;102018.50;5227152;28;20075;-78
2021/03/20 03:04:10;;;;;;;7.20;1.90;;;;;;;-1.54;91.15;102015.50;5222105;28;20011;-80
2021/03/20 03:06:52;;;;;;;6.25;1.73;;;;;;;-1.37;89.47;102014.41;5220963;28;20044;-79
2021/03/20 03:09:33;;;;;;;5.95;2.10;;;;;;;-1.64;89.82;102006.63;5206905;28;20475;-79
2021/03/20 03:12:08;;;;;;;4.95;1.98;;;;;;;-1.65;90.85;102012.56;5209352;28;20021;-79
2021/03/20 03:14:59;;;;;;;5.20;2.10;;;;;;;-1.82;90.95;102012.75;5206404;28;20024;-79
2021/03/20 03:17:33;;;;;;;6.40;2.03;;;;;;;-1.75;92.49;102007.06;5223423;28;20051;-79
2021/03/20 03:20:11;;;;;;;5.25;2.03;;;;;;;-1.72;92.92;102002.03;5220230;28;20110;-79
2021/03/20 03:23:01;;;;;;;7.60;2.05;;;;;;;-1.65;92.52;102011.66;5219551;28;20088;-79
2021/03/20 03:25:35;;;;;;;7.63;2.00;;;;;;;-1.54;91.59;102003.53;5216914;28;20840;-79
2021/03/20 03:28:10;;;;;;;6.15;2.03;;;;;;;-1.52;92.58;102006.19;5221118;28;20032;-78
2021/03/20 03:30:40;;;;;;;6.65;2.10;;;;;;;-1.72;93.48;102004.59;5223961;28;20029;-79
2021/03/20 03:33:24;;;;;;;9.45;2.22;;;;;;;-1.93;93.38;102008.06;5223451;28;20021;-78
2021/03/20 03:35:59;;;;;;;6.85;2.40;;;;;;;-2.07;94.47;102010.09;5225771;28;20040;-79
2021/03/20 03:38:42;;;;;;;6.93;2.00;;;;;;;-2.09;95.65;102009.19;5208187;28;20028;-79
2021/03/20 03:41:17;;;;;;;6.07;2.00;;;;;;;-2.08;95.93;102018.59;5221710;28;20049;-78
2021/03/20 03:43:53;;;;;;;5.30;2.10;;;;;;;-2.03;95.53;102026.47;5224772;28;20078;-79
2021/03/20 03:46:27;;;;;;;7.63;2.28;;;;;;;-2.02;95.30;102033.34;5222323;28;20685;-78
2021/03/20 03:49:00;;;;;;;4.78;1.80;;;;;;;-1.92;95.54;102031.16;5223427;28;20027;-80
2021/03/20 03:51:31;;;;;;;5.95;2.10;;;;;;;-1.74;94.41;102026.72;5223511;28;20021;-78
2021/03/20 03:54:02;;;;;;;4.28;1.88;;;;;;;-1.68;93.77;102032.94;5206897;28;20040;-79
2021/03/20 03:57:01;;;;;;;7.78;2.28;;;;;;;-1.97;93.55;102032.66;5228344;28;20029;-79
2021/03/20 04:00:10;;;;;;;5.13;1.98;;;;;;;-1.89;95.45;102035.50;5203466;28;20468;-80
2021/03/20 04:03:01;;;;;;;7.78;2.10;;;;;;;-1.87;94.40;102034.78;5102718;29;20405;-78
2021/03/20 04:06:06;;;;;;;8.32;2.05;;;;;;;-1.95;94.57;102030.16;5219821;28;20110;-79
2021/03/20 04:09:19;;;;;;;7.07;2.27;;;;;;;-1.97;95.06;102031.81;5166768;28;20028;-79
2021/03/20 04:12:19;;;;;;;6.75;2.20;;;;;;;-2.08;95.38;102021.16;5203510;28;20538;-80
2021/03/20 04:15:04;;;;;;;7.72;1.98;;;;;;;-1.91;95.28;102026.91;5217849;28;20025;-80
2021/03/20 04:17:54;;;;;;;7.63;2.10;;;;;;;-1.96;95.39;102020.75;5203896;28;20024;-80
2021/03/20 04:20:41;;;;;;;4.50;1.80;;;;;;;-2.03;94.71;102022.19;5205872;28;20275;-80
2021/03/20 04:23:19;;;;;;;6.63;1.75;;;;;;;-2.18;95.62;102020.75;5220943;28;20725;-80
2021/03/20 04:26:01;;;;;;;6.93;2.28;;;;;;;-2.31;97.24;102021.94;5207497;28;20032;-80
2021/03/20 04:28:48;;;;;;;7.18;2.30;;;;;;;-2.23;97.73;102019.69;5219034;28;20031;-80
2021/03/20 04:31:30;;;;;;;6.20;2.30;;;;;;;-2.19;98.20;102030.13;5223728;28;20073;-80
2021/03/20 04:34:18;;;;;;;6.57;1.98;;;;;;;-2.07;96.40;102030.59;5206318;28;20073;-80
2021/03/20 04:36:53;;;;;;;5.22;2.10;;;;;;;-2.18;96.33;102036.97;5221788;28;20021;-80
2021/03/20 04:39:26;;;;;;;5.20;2.00;;;;;;;-2.29;97.47;102035.72;5224184;28;20027;-79
2021/03/20 04:41:57;;;;;;;10.00;1.92;;;;;;;-2.47;96.15;102046.91;5222104;28;20039;-80
2021/03/20 04:44:28;;;;;;;5.10;2.13;;;;;;;-2.37;97.27;102039.63;5207858;28;20037;-80
2021/03/20 04:46:59;;;;;;;5.97;2.00;;;;;;;-2.30;97.09;102041.59;5220832;28;20021;-80
2021/03/20 04:49:50;;;;;;;6.82;2.30;;;;;;;-2.28;97.68;102049.38;5223823;28;20116;-80
2021/03/20 04:52:27;;;;;;;5.00;2.10;;;;;;;-2.50;97.14;102042.53;5221737;28;20025;-80
2021/03/20 04:54:58;;;;;;;6.80;2.08;;;;;;;-2.55;97.21;102046.59;5222705;28;20031;-80
2021/03/20 04:57:37;;;;;;;4.55;1.98;;;;;;;-2.41;97.98;102042.91;5223230;28;20068;-80
2021/03/20 05:00:14;;;;;;;6.28;2.10;;;;;;;-2.17;96.92;102031.03;5220573;28;20024;-80
2021/03/20 05:02:52;;;;;;;7.28;2.22;;;;;;;-2.41;97.11;102026.66;5222883;28;20075;-79
2021/03/20 05:05:28;;;;;;;5.53;2.22;;;;;;;-2.38;97.84;102026.75;5205535;28;20056;-80
2021/03/20 05:08:06;;;;;;;8.95;2.50;;;;;;;-2.24;98.20;102020.50;5219853;28;20449;-80
2021/03/20 05:11:01;;;;;;;5.35;2.35;;;;;;;-2.12;97.34;102026.09;5220580;28;20055;-80
2021/03/20 05:13:47;;;;;;;6.00;1.92;;;;;;;-2.18;94.54;102026.72;5201888;28;20574;-80
2021/03/20 05:16:17;;;;;;;4.60;1.98;;;;;;;-2.26;94.52;102032.38;5223184;28;20742;-80
2021/03/20 05:18:52;;;;;;;7.60;2.63;;;;;;;-2.27;95.50;102033.19;5223493;28;20036;-80
2021/03/20 05:21:29;;;;;;;10.77;2.58;;;;;;;-2.37;96.78;102029.41;5224407;28;20028;-79
2021/03/20 05:24:01;;;;;;;5.28;2.17;;;;;;;-2.28;97.53;102018.66;5203813;28;20090;-80
2021/03/20 05:26:33;;;;;;;6.10;2.00;;;;;;;-2.40;98.34;102021.59;5201981;28;20027;-80
2021/03/20 05:29:03;;;;;;;9.65;2.60;;;;;;;-2.39;99.75;102023.34;5223526;28;20021;-80
2021/03/20 05:31:34;;;;;;;7.38;2.50;;;;;;;-2.38;100.00;102030.22;5205965;28;20099;-80
2021/03/20 05:34:24;;;;;;;5.25;2.15;;;;;;;-2.24;99.58;102026.50;5207839;28;20493;-80
2021/03/20 05:36:55;;;;;;;4.65;1.85;;;;;;;-2.27;99.70;102031.53;5226916;28;20047;-80
2021/03/20 05:39:26;;;;;;;6.35;2.30;;;;;;;-2.31;99.05;102028.78;5227041;28;20025;-80
2021/03/20 05:42:06;;;;;;;6.53;2.53;;;;;;;-2.26;99.14;102028.16;5226711;28;20083;-80
2021/03/20 05:44:42;;;;;;;7.38;2.58;;;;;;;-2.00;98.90;102039.38;5223245;28;20044;-80
2021/03/20 05:47:24;;;;;;;6.38;2.33;;;;;;;-1.93;98.07;102029.44;5205986;28;20112;-80
2021/03/20 05:50:17;;;;;;;11.50;2.78;;;;;;;-1.88;97.79;102045.84;5229365;28;20037;-80
2021/03/20 05:53:06;;;;;;;6.55;2.50;;;;;;;-1.90;97.69;102044.91;5207460;28;20111;-80
2021/03/20 05:55:57;;;;;;;7.93;2.53;;;;;;;-1.89;98.33;102051.78;5223650;28;20084;-79
2021/03/20 05:59:01;;;;;;;8.68;2.58;;;;;;;-1.78;98.37;102058.19;5210598;28;20024;-78
2021/03/20 06:02:02;;;;;;;5.95;1.98;;;;;;;-1.87;96.90;102065.50;5206421;28;20032;-79
2021/03/20 06:04:35;;;;;;;6.97;2.40;;;;;;;-1.65;96.23;102065.47;5232530;28;20029;-81
2021/03/20 06:07:24;;;;;;;9.48;2.92;;;;;;;-1.67;96.26;102069.69;5216110;28;20051;-81
2021/03/20 06:10:24;;;;;;;3.58;1.98;;;;;;;-1.60;96.61;102064.84;5211844;28;20025;-80
2021/03/20 06:13:19;;;;;;;7.60;2.42;;;;;;;-1.75;96.88;102068.53;5216358;22;20033;-77
2021/03/20 06:15:55;;;;;;;11.63;2.90;;;;;;;-1.43;97.57;102070.59;5222424;28;20055;-77
2021/03/20 06:18:59;;;;;;;6.30;2.60;;;;;;;-1.09;96.24;102064.13;5222958;28;20032;-77
2021/03/20 06:22:02;;;;;;;6.03;2.42;;;;;;;-0.95;94.65;102074.88;5223265;28;20029;-77
2021/03/20 06:24:48;;;;;;;7.38;3.38;;;;;;;-0.67;90.69;102069.84;5219283;28;20051;-77
2021/03/20 06:27:22;;;;;;;9.75;2.83;;;;;;;-0.27;90.48;102054.91;5223235;28;20593;-77
2021/03/20 06:30:05;;;;;;;7.13;2.60;;;;;;;-0.62;91.20;102058.91;5223528;28;20044;-77
2021/03/20 06:32:47;;;;;;;5.88;3.28;;;;;;;-0.49;90.34;102062.75;5211412;28;20071;-77
2021/03/20 06:35:17;;;;;;;10.18;3.50;;;;;;;-0.68;92.15;102065.53;5223370;28;20096;-77
2021/03/20 06:37:52;;;;;;;7.97;3.38;;;;;;;-0.49;90.99;102057.63;5223637;28;20508;-77
2021/03/20 06:40:43;;;;;;;10.55;3.40;;;;;;;-0.73;92.28;102061.97;5223472;28;20040;-77
2021/03/20 06:43:17;;;;;;;8.02;3.88;;;;;;;-0.47;93.91;102063.66;5223147;28;20037;-77
2021/03/20 06:45:48;;;;;;;11.48;3.80;;;;;;;-0.16;90.54;102063.81;5228156;28;20035;-77
2021/03/20 06:48:23;;;;;;;9.57;3.75;;;;;;;0.40;89.92;102062.13;5223930;28;20025;-77
2021/03/20 06:50:58;;;;;;;11.60;4.15;;;;;;;0.53;87.88;102075.38;5222968;28;20030;-77
2021/03/20 06:53:40;;;;;;;12.63;4.22;;;;;;;0.87;86.54;102072.91;5223770;28;20620;-77
2021/03/20 06:56:14;;;;;;;8.93;3.83;;;;;;;0.52;85.74;102073.63;5217813;28;20035;-77
2021/03/20 06:58:45;;;;;;;10.55;4.13;;;;;;;0.35;86.42;102072.28;5205582;28;20036;-77
2021/03/20 07:01:18;;;;;;;9.27;3.88;;;;;;;0.78;83.90;102076.94;5221398;28;20035;-77
2021/03/20 07:04:10;;;;;;;9.52;4.45;;;;;;;0.51;85.47;102087.31;5221711;28;20043;-77
2021/03/20 07:06:55;;;;;;;12.25;3.80;;;;;;;1.02;83.99;102072.44;5221042;28;20053;-76
2021/03/20 07:09:25;;;;;;;8.48;3.60;;;;;;;0.56;84.68;102072.03;5204972;28;20025;-75
2021/03/20 07:12:07;;;;;;;7.25;3.00;;;;;;;1.03;84.49;102069.06;5221055;28;20032;-75
2021/03/20 07:14:48;;;;;;;8.93;3.30;;;;;;;0.82;84.06;102068.47;5203871;28;20544;-75
2021/03/20 07:17:21;;;;;;;9.85;3.40;;;;;;;0.75;85.36;102066.56;5224629;28;20106;-76
2021/03/20 07:20:10;;;;;;;9.48;3.25;;;;;;;1.02;83.67;102072.44;5222228;28;20075;-75
2021/03/20 07:22:47;;;;;;;7.38;3.10;;;;;;;1.25;84.69;102067.06;5219213;28;20037;-76
2021/03/20 07:25:52;;;;;;;9.43;3.10;;;;;;;1.74;82.96;102072.59;5222482;28;20478;-76
2021/03/20 07:28:29;;;;;;;7.00;2.90;;;;;;;1.58;83.12;102073.06;5202948;28;20509;-76
2021/03/20 07:30:59;;;;;;;7.57;2.83;;;;;;;1.48;82.66;102081.41;5222088;28;20028;-76
2021/03/20 07:33:36;;;;;;;8.30;2.92;;;;;;;2.04;81.72;102081.03;5221498;28;20029;-76
2021/03/20 07:36:21;;;;;;;6.05;2.83;;;;;;;2.80;77.67;102069.78;5218268;28;20044;-76
2021/03/20 07:39:12;;;;;;;6.65;2.67;;;;;;;3.62;74.37;102053.19;5222032;28;21395;-75
2021/03/20 07:41:54;;;;;;;7.05;2.85;;;;;;;3.90;70.23;102050.19;5206646;28;20053;-75
2021/03/20 07:44:27;;;;;;;9.13;2.97;;;;;;;3.34;70.83;102060.47;5223065;28;20510;-75
2021/03/20 07:46:58;;;;;;;5.85;2.50;;;;;;;4.03;68.48;102052.13;5220518;28;20025;-76
2021/03/20 07:49:31;;;;;;;11.40;3.22;;;;;;;5.07;67.77;102046.50;5222146;28;20393;-76
2021/03/20 07:52:22;;;;;;;8.30;2.75;;;;;;;7.84;58.90;102051.31;5220940;28;20242;-76
2021/03/20 07:55:14;;;;;;;7.18;2.30;;;;;;;7.07;59.04;102046.06;5220475;28;20064;-76
2021/03/20 07:57:53;;;;;;;7.60;2.80;;;;;;;5.66;60.31;102061.75;5219246;28;20083;-75
2021/03/20 08:00:41;;;;;;;8.40;2.92;;;;;;;4.59;65.42;102068.38;5221657;28;20036;-76
2021/03/20 08:03:21;;;;;;;10.77;4.03;;;;;;;4.70;66.33;102074.56;5217951;28;20029;-75
2021/03/20 08:05:51;;;;;;;11.10;2.88;;;;;;;5.65;61.53;102060.03;5220815;28;20090;-76
2021/03/20 08:08:26;;;;;;;6.40;2.08;;;;;;;6.95;60.69;102040.84;5218917;28;20119;-76
2021/03/20 08:10:58;;;;;;;7.97;2.47;;;;;;;7.39;57.32;102042.66;5218695;28;20429;-76
2021/03/20 08:13:49;;;;;;;7.25;2.33;;;;;;;9.49;55.54;102037.59;5218930;28;20033;-76
2021/03/20 08:16:20;;;;;;;9.60;2.50;;;;;;;8.30;54.49;102029.56;5216627;28;20034;-76
2021/03/20 08:18:54;;;;;;;9.85;2.65;;;;;;;8.97;53.75;102030.09;5218230;28;20033;-75
2021/03/20 08:21:24;;;;;;;8.88;2.92;;;;;;;8.88;53.66;102036.25;5216361;28;20032;-75
2021/03/20 08:24:23;;;;;;;10.13;2.60;;;;;;;10.17;52.89;102027.41;5215541;28;20543;-77
2021/03/20 08:26:53;;;;;;;7.88;2.50;;;;;;;9.75;52.40;102033.00;5212191;28;20422;-77
2021/03/20 08:29:53;;;;;;;7.47;2.63;;;;;;;8.08;53.92;102034.78;5214100;28;20032;-77
2021/03/20 08:32:51;;;;;;;11.10;3.17;;;;;;;6.63;56.94;102045.06;5201441;28;20641;-77
2021/03/20 08:35:33;;;;;;;9.27;3.05;;;;;;;5.87;60.24;102040.31;5215367;28;20041;-77
2021/03/20 08:38:42;;;;;;;6.80;3.15;;;;;;;6.84;56.43;102029.53;5223089;28;20040;-77
2021/03/20 08:41:27;;;;;;;8.48;3.10;;;;;;;4.88;59.77;102035.94;5174697;28;20128;-77
2021/03/20 08:44:17;;;;;;;7.30;3.42;;;;;;;7.67;55.00;102027.03;5233588;28;20071;-77
2021/03/20 08:46:58;;;;;;;6.15;2.72;;;;;;;10.65;49.95;102026.84;5223497;28;20029;-77
2021/03/20 08:50:19;;;;;;;6.72;2.90;;;;;;;9.35;50.37;102019.41;5216179;28;20024;-77
2021/03/20 08:53:30;;;;;;;8.32;2.90;;;;;;;10.63;48.71;102008.53;5144776;28;20113;-77
2021/03/20 08:56:11;;;;;;;7.68;2.85;;;;;;;9.22;49.27;102012.56;5218286;28;20509;-77
2021/03/20 08:58:56;;;;;;;11.02;4.05;;;;;;;8.46;53.46;102023.44;5221773;28;20419;-77
2021/03/20 09:01:51;;;;;;;5.75;2.78;;;;;;;7.42;54.98;102014.91;5221820;28;20068;-77
2021/03/20 09:04:31;;;;;;;7.75;2.60;;;;;;;8.97;51.86;102012.75;5201143;28;20716;-78
2021/03/20 09:07:08;;;;;;;6.53;2.20;;;;;;;6.91;54.69;102026.09;5212738;28;20058;-77
2021/03/20 09:09:48;;;;;;;4.72;2.00;;;;;;;6.18;54.48;102031.84;5242667;28;20064;-77
2021/03/20 09:12:35;;;;;;;8.07;2.80;;;;;;;5.73;55.15;102039.34;5243993;28;20025;-77
2021/03/20 09:15:14;;;;;;;5.65;2.88;;;;;;;5.37;57.38;102038.16;5229543;28;20029;-77
2021/03/20 09:17:45;;;;;;;4.80;1.90;;;;;;;4.76;57.86;102047.03;5225463;28;20025;-77
2021/03/20 09:20:23;;;;;;;8.85;3.53;;;;;;;4.91;58.09;102042.03;5225464;28;20031;-77
2021/03/20 09:22:55;;;;;;;5.00;2.80;;;;;;;5.70;57.85;102052.25;5224466;28;20383;-77
2021/03/20 09:25:37;;;;;;;10.43;3.88;;;;;;;5.83;58.07;102049.81;5233195;28;20609;-77
2021/03/20 09:28:29;;;;;;;10.05;4.07;;;;;;;6.16;55.86;102057.81;5218129;28;20095;-77
2021/03/20 09:31:28;;;;;;;9.85;4.22;;;;;;;5.57;56.45;102059.06;5225310;28;20585;-77
2021/03/20 09:34:18;;;;;;;8.35;3.80;;;;;;;4.94;58.30;102048.97;5225255;28;20683;-77
2021/03/20 09:36:49;;;;;;;9.38;4.38;;;;;;;4.83;58.08;102051.41;5224741;28;20052;-77
2021/03/20 09:39:44;;;;;;;5.45;2.30;;;;;;;4.64;57.66;102051.22;5225423;28;20043;-77
2021/03/20 09:42:41;;;;;;;5.50;2.15;;;;;;;4.73;57.96;102049.59;5239880;28;20035;-77
2021/03/20 09:45:11;;;;;;;5.55;2.67;;;;;;;4.55;59.57;102051.09;5209101;28;20037;-77
2021/03/20 09:47:41;;;;;;;7.63;2.93;;;;;;;4.57;57.91;102057.16;5229815;28;20040;-77
2021/03/20 09:50:17;;;;;;;7.32;2.80;;;;;;;4.34;58.61;102059.47;5224881;28;20668;-77
2021/03/20 09:53:16;;;;;;;14.07;5.80;;;;;;;4.59;57.15;102050.25;5227882;28;20023;-77
2021/03/20 09:55:51;;;;;;;10.93;5.32;;;;;;;4.57;56.90;102051.97;5238968;28;20021;-76
2021/03/20 09:58:21;;;;;;;10.63;5.53;;;;;;;4.32;56.10;102050.78;5225094;28;20115;-77
2021/03/20 10:00:52;;;;;;;5.17;2.33;;;;;;;4.48;56.58;102047.53;5224455;28;20654;-76
2021/03/20 10:03:40;;;;;;;7.32;3.67;;;;;;;4.52;57.36;102048.47;5224121;28;20374;-77
2021/03/20 10:06:33;;;;;;;5.47;2.67;;;;;;;4.43;57.30;102049.22;5214739;28;20029;-77
2021/03/20 10:09:20;;;;;;;6.38;2.60;;;;;;;4.83;57.39;102038.47;5223731;28;20033;-77
2021/03/20 10:11:50;;;;;;;8.10;1.80;;;;;;;5.02;59.01;102036.94;5224503;28;20035;-77
2021/03/20 10:14:30;;;;;;;18.43;9.77;;;;;;;5.24;57.99;102034.59;5224394;28;20037;-77
2021/03/20 10:17:16;;;;;;;11.18;6.50;;;;;;;5.57;58.11;102038.31;5224201;28;20298;-77
2021/03/20 10:19:51;;;;;;;6.43;2.78;;;;;;;5.23;56.94;102034.56;5224379;28;20473;-77
2021/03/20 10:22:27;;;;;;;5.83;1.93;;;;;;;5.55;57.47;102034.00;5223963;28;20113;-77
2021/03/20 10:24:57;;;;;;;5.65;2.00;;;;;;;5.16;59.03;102028.44;5213216;28;20118;-77
2021/03/20 10:27:37;;;;;;;5.30;2.33;;;;;;;5.19;56.23;102031.06;5223770;28;20052;-77
2021/03/20 10:30:23;;;;;;;9.35;2.53;;;;;;;5.36;55.97;102028.63;5224213;28;20029;-77
2021/03/20 10:33:05;;;;;;;;;;;;;;;5.15;56.16;102031.91;5224248;28;20120;-77
2021/03/20 10:35:38;;;;;;;9.52;3.40;;;;;;;5.52;57.56;102021.88;5230959;28;19969;-77
2021/03/20 10:38:28;;;;;;;7.90;3.10;;;;;;;5.63;54.74;102019.34;5223857;28;20024;-77
2021/03/20 10:41:04;;;;;;;22.23;6.57;;;;;;;5.73;55.80;102031.56;5223671;28;20036;-77
2021/03/20 10:43:51;;;;;;;5.07;1.60;;;;;;;5.31;52.45;102028.59;5206313;28;20375;-77
2021/03/20 10:46:26;;;;;;;4.13;1.55;;;;;;;5.64;53.45;102034.06;5224051;28;20036;-77
2021/03/20 10:48:58;;;;;;;4.30;1.48;;;;;;;5.01;53.76;102030.03;5224176;28;20043;-77
2021/03/20 10:51:37;;;;;;;4.93;1.50;;;;;;;5.50;53.43;102021.00;5223534;28;20104;-77
2021/03/20 10:54:15;;;;;;;5.20;1.60;;;;;;;4.98;54.38;102024.84;5223593;28;20029;-77
2021/03/20 10:56:48;;;;;;;3.47;1.38;;;;;;;5.02;54.79;102017.13;5223867;28;20036;-77
2021/03/20 10:59:27;;;;;;;9.70;3.90;;;;;;;5.20;54.45;102012.09;5223639;28;20382;-77
2021/03/20 11:02:19;;;;;;;118.40;7.30;;;;;;;5.23;54.85;102013.84;5223526;28;20029;-77
2021/03/20 11:04:51;;;;;;;39.95;3.28;;;;;;;4.99;52.75;102011.88;5223501;28;20479;-77
2021/03/20 11:07:23;;;;;;;22.58;1.63;;;;;;;5.41;53.05;102007.09;5225897;28;20031;-76
2021/03/20 11:10:09;;;;;;;11.88;1.50;;;;;;;5.11;52.57;102006.81;5227124;28;20029;-77
2021/03/20 11:12:39;;;;;;;9.30;1.20;;;;;;;5.58;52.36;101998.56;5222983;28;20108;-77
2021/03/20 11:15:24;;;;;;;13.88;1.77;;;;;;;5.63;52.74;101994.31;5223271;28;20163;-77
2021/03/20 11:17:59;;;;;;;22.05;1.70;;;;;;;5.38;51.58;101992.38;5240837;28;20041;-77
2021/03/20 11:20:36;;;;;;;4.75;1.38;;;;;;;5.45;51.01;101988.09;5243692;28;20402;-77
2021/03/20 11:23:26;;;;;;;10.55;1.60;;;;;;;5.54;52.29;101993.38;5233865;28;20013;-77
2021/03/20 11:26:09;;;;;;;2.83;1.05;;;;;;;5.48;51.89;101988.13;5222490;28;20399;-77
2021/03/20 11:28:40;;;;;;;3.83;1.13;;;;;;;5.12;52.74;101980.06;5223068;28;20463;-77
2021/03/20 11:31:13;;;;;;;4.07;1.30;;;;;;;5.44;52.18;101970.81;5222521;28;20028;-77
2021/03/20 11:33:45;;;;;;;2.80;0.90;;;;;;;4.83;50.46;101976.31;5204953;28;20588;-77
2021/03/20 11:36:22;;;;;;;3.60;1.25;;;;;;;4.83;52.12;101970.28;5223350;28;20394;-77
2021/03/20 11:38:52;;;;;;;6.75;1.25;;;;;;;5.26;52.84;101964.63;5224492;28;20032;-77
2021/03/20 11:41:27;;;;;;;3.90;1.10;;;;;;;5.30;53.02;101950.84;5243394;28;20661;-77
2021/03/20 11:44:23;;;;;;;2.40;1.05;;;;;;;5.42;53.20;101941.44;5243233;28;20024;-77
2021/03/20 11:46:57;;;;;;;4.60;1.00;;;;;;;5.31;51.99;101931.84;5242732;28;20071;-77
2021/03/20 11:49:38;;;;;;;2.53;1.08;;;;;;;5.48;51.68;101931.09;5243358;28;20081;-77
2021/03/20 11:52:15;;;;;;;3.08;0.98;;;;;;;5.02;53.38;101936.81;5242369;28;20783;-77
2021/03/20 11:54:54;;;;;;;2.08;0.90;;;;;;;5.25;51.85;101939.56;5241541;28;20029;-77
2021/03/20 11:57:36;;;;;;;4.65;1.25;;;;;;;5.12;50.85;101935.16;5243586;28;20024;-77
2021/03/20 12:00:31;;;;;;;7.38;1.20;;;;;;;4.80;51.39;101927.09;5225428;28;20025;-77
2021/03/20 12:03:05;;;;;;;3.97;1.30;;;;;;;4.89;53.39;101921.13;5243023;28;20402;-77
2021/03/20 12:05:36;;;;;;;3.60;1.17;;;;;;;5.04;53.66;101906.59;5241334;28;20021;-77
2021/03/20 12:08:25;;;;;;;4.78;1.70;;;;;;;4.93;52.83;101895.25;5222413;28;20025;-77
2021/03/20 12:11:10;;;;;;;4.25;1.50;;;;;;;5.40;57.53;101888.72;5218748;28;20083;-77
2021/03/20 12:13:47;;;;;;;4.20;1.63;;;;;;;5.31;54.49;101885.19;5225400;22;20076;-79
2021/03/20 12:16:38;;;;;;;2.83;1.10;;;;;;;5.44;51.47;101885.28;5179933;28;20033;-79
2021/03/20 12:19:20;;;;;;;4.82;1.60;;;;;;;5.29;51.81;101874.81;5178159;28;20022;-79
2021/03/20 12:22:00;;;;;;;5.60;1.50;;;;;;;5.09;50.14;101860.84;5180512;28;20026;-79
2021/03/20 12:24:31;;;;;;;4.35;1.60;;;;;;;5.06;51.17;101862.53;5179661;28;20097;-79
2021/03/20 12:27:23;;;;;;;3.67;1.63;;;;;;;5.18;51.66;101852.28;5176767;28;20030;-79
2021/03/20 12:30:19;;;;;;;9.80;2.70;;;;;;;5.35;53.18;101846.31;5163071;28;20112;-79
2021/03/20 12:32:51;;;;;;;5.93;1.20;;;;;;;5.83;52.39;101851.78;5159238;28;20032;-79